Time;durP1;ratioP1;P1;durP2;ratioP2;P2;SDS_P1;SDS_P2;PMS_P1;PMS_P2;Temp;Humidity;BMP_temperature;BMP_pressure;BME280_temperature;BME280_humidity;BME280_pressure;Samples;Min_cycle;Max_cycle;Signal;HPM_P1;HPM_P2
2023/12/07 00:02:39;;;;;;;1.90;0.87;;;1.60;99.90;;;-0.50;100.00;99872.22;10451619;27;98324;-84
2023/12/07 00:07:43;;;;;;;2.50;1.10;;;1.60;99.90;;;-0.49;100.00;99881.72;10459067;27;97598;-84
2023/12/07 00:12:46;;;;;;;2.00;0.73;;;1.60;99.90;;;-0.48;100.00;99882.56;10462065;27;96767;-84
2023/12/07 00:17:50;;;;;;;1.83;0.83;;;1.60;99.90;;;-0.52;100.00;99881.94;10460450;27;96510;-84
2023/12/07 00:22:54;;;;;;;2.10;0.60;;;1.60;99.90;;;-0.51;100.00;99894.06;10480393;27;96625;-83
2023/12/07 00:27:57;;;;;;;1.00;0.50;;;1.60;99.90;;;-0.54;100.00;99891.63;10458024;27;97847;-84
2023/12/07 00:33:01;;;;;;;0.60;0.30;;;1.60;99.90;;;-0.56;100.00;99896.13;10488308;27;96485;-84
2023/12/07 00:38:08;;;;;;;2.03;0.43;;;1.60;99.90;;;-0.57;100.00;99897.09;10439306;27;96666;-84
2023/12/07 00:43:12;;;;;;;1.87;0.90;;;1.60;99.90;;;-0.65;100.00;99887.19;10489008;27;96507;-84
2023/12/07 00:48:15;;;;;;;5.83;2.30;;;1.50;99.90;;;-0.62;100.00;99897.38;10475331;27;96652;-83
2023/12/07 00:53:19;;;;;;;4.50;1.67;;;1.50;99.90;;;-0.67;100.00;99899.47;10439161;27;96523;-84
2023/12/07 00:58:24;;;;;;;2.67;1.30;;;1.50;99.90;;;-0.70;100.00;99901.47;10475913;27;96558;-84
2023/12/07 01:03:27;;;;;;;3.03;1.33;;;1.40;99.90;;;-0.69;100.00;99905.75;10468019;27;96610;-84
2023/12/07 01:08:31;;;;;;;3.53;1.83;;;1.40;99.90;;;-0.75;100.00;99896.56;10465899;27;98260;-84
2023/12/07 01:13:36;;;;;;;5.23;2.47;;;1.40;99.90;;;-0.73;100.00;99901.66;10455902;27;97045;-83
2023/12/07 01:18:40;;;;;;;5.47;2.13;;;1.30;99.90;;;-0.78;100.00;99893.31;10483745;27;96493;-83
2023/12/07 01:23:43;;;;;;;4.33;2.53;;;1.30;99.90;;;-0.82;100.00;99888.31;10448227;27;98119;-84
2023/12/07 01:28:47;;;;;;;4.13;1.90;;;1.30;99.90;;;-0.83;100.00;99884.03;10459135;27;96556;-83
2023/12/07 01:33:53;;;;;;;4.07;2.07;;;1.30;99.90;;;-0.86;100.00;99879.00;10440394;27;96487;-83
2023/12/07 01:38:58;;;;;;;4.00;1.97;;;1.30;99.90;;;-0.84;100.00;99876.28;10456617;27;96530;-83
2023/12/07 01:44:03;;;;;;;4.63;2.53;;;1.30;99.90;;;-0.81;100.00;99887.38;10485537;27;96663;-83
2023/12/07 01:49:09;;;;;;;3.63;1.67;;;1.20;99.90;;;-0.82;100.00;99895.31;10487868;27;97401;-84
2023/12/07 01:54:13;;;;;;;3.47;2.27;;;1.20;99.90;;;-0.84;100.00;99886.72;10443898;27;98016;-83
2023/12/07 01:59:17;;;;;;;6.17;2.10;;;1.20;99.90;;;-0.82;100.00;99888.31;10472592;27;97112;-83
2023/12/07 02:04:24;;;;;;;4.17;2.20;;;1.20;99.90;;;-0.82;100.00;99890.09;10484925;27;96574;-83
2023/12/07 02:09:32;;;;;;;3.60;1.90;;;1.30;99.90;;;-0.87;100.00;99877.34;10478722;27;97037;-83
2023/12/07 02:14:36;;;;;;;5.87;2.10;;;1.30;99.90;;;-0.81;100.00;99891.75;10477278;27;97030;-83
2023/12/07 02:19:56;;;;;;;5.27;2.10;;;1.30;99.90;;;-0.82;100.00;99885.69;10476479;27;97055;-83
2023/12/07 02:25:12;;;;;;;3.63;2.03;;;1.20;99.90;;;-0.87;100.00;99866.91;10479899;27;96564;-83
2023/12/07 02:30:17;;;;;;;3.40;1.77;;;1.20;99.90;;;-0.80;100.00;99888.19;10477523;27;96655;-83
2023/12/07 02:35:21;;;;;;;3.53;1.97;;;1.30;99.90;;;-0.82;100.00;99884.88;10467649;27;96518;-84
2023/12/07 02:40:28;;;;;;;3.00;1.60;;;1.30;99.90;;;-0.85;100.00;99885.88;10450060;27;96533;-84
2023/12/07 02:45:33;;;;;;;3.07;1.70;;;1.30;99.90;;;-0.88;100.00;99880.91;10505332;27;96574;-84
2023/12/07 02:50:40;;;;;;;4.07;1.47;;;1.30;99.90;;;-0.84;100.00;99884.97;10476291;27;96495;-84
2023/12/07 02:55:44;;;;;;;3.93;1.60;;;1.30;99.90;;;-0.85;100.00;99885.88;10449491;27;96712;-84
2023/12/07 03:00:48;;;;;;;2.27;1.47;;;1.30;99.90;;;-0.84;100.00;99882.38;10449339;27;96615;-84
2023/12/07 03:05:52;;;;;;;3.17;1.40;;;1.30;99.90;;;-0.81;100.00;99896.97;10460375;27;96659;-84
2023/12/07 03:10:55;;;;;;;3.57;1.60;;;1.30;99.90;;;-0.79;100.00;99902.06;10443745;27;96647;-84
2023/12/07 03:15:59;;;;;;;2.07;1.07;;;1.30;99.90;;;-0.79;100.00;99913.34;10444375;27;96559;-84
2023/12/07 03:21:03;;;;;;;2.57;1.20;;;1.30;99.90;;;-0.78;100.00;99916.78;10468640;27;97299;-84
2023/12/07 03:26:07;;;;;;;1.67;0.90;;;1.30;99.90;;;-0.81;100.00;99908.25;10467853;27;97201;-84
2023/12/07 03:31:19;;;;;;;1.63;0.73;;;1.30;99.90;;;-0.78;100.00;99915.03;10459566;27;96554;-84
2023/12/07 03:36:23;;;;;;;1.40;0.70;;;1.30;99.90;;;-0.75;100.00;99920.03;10468593;27;97675;-84
2023/12/07 03:41:29;;;;;;;2.87;0.73;;;1.30;99.90;;;-0.79;100.00;99915.13;10488876;27;96511;-84
2023/12/07 03:46:36;;;;;;;1.83;0.80;;;1.30;99.90;;;-0.81;100.00;99917.84;10470533;27;97825;-84
2023/12/07 03:51:49;;;;;;;1.43;0.80;;;1.30;99.90;;;-0.86;100.00;99917.31;10472957;27;96604;-84
2023/12/07 03:56:59;;;;;;;1.30;0.70;;;1.30;99.90;;;-0.79;100.00;99929.00;10468618;27;97558;-84
2023/12/07 04:02:03;;;;;;;2.27;1.10;;;1.30;99.90;;;-0.78;100.00;99933.31;10455223;27;97250;-84
2023/12/07 04:07:08;;;;;;;1.97;1.30;;;1.30;99.90;;;-0.81;100.00;99936.94;10459211;27;97634;-83
2023/12/07 04:12:14;;;;;;;5.67;1.60;;;1.30;99.90;;;-0.81;100.00;99936.09;10458274;27;96584;-84
2023/12/07 04:17:18;;;;;;;3.27;1.30;;;1.30;99.90;;;-0.81;100.00;99942.16;10463282;27;96701;-84
2023/12/07 04:22:22;;;;;;;4.77;1.50;;;1.30;99.90;;;-0.79;100.00;99941.22;10477266;27;96524;-84
2023/12/07 04:27:26;;;;;;;2.13;1.00;;;1.30;99.90;;;-0.81;100.00;99942.16;10446075;27;96869;-84
2023/12/07 04:32:30;;;;;;;2.23;1.20;;;1.30;99.90;;;-0.82;100.00;99947.47;10460394;27;96491;-84
2023/12/07 04:37:33;;;;;;;2.33;1.20;;;1.30;99.90;;;-0.81;100.00;99957.81;10447576;27;96497;-84
2023/12/07 04:42:37;;;;;;;2.13;1.00;;;1.30;99.90;;;-0.77;100.00;99960.22;10453924;27;96576;-83
2023/12/07 04:47:41;;;;;;;2.43;1.30;;;1.30;99.90;;;-0.78;100.00;99969.84;10435942;27;96693;-83
2023/12/07 04:52:45;;;;;;;4.30;1.93;;;1.30;99.90;;;-0.77;100.00;99968.88;10458932;27;96562;-83
2023/12/07 04:57:49;;;;;;;7.00;1.90;;;1.40;99.90;;;-0.79;100.00;99970.75;10463372;27;96521;-83
2023/12/07 05:02:52;;;;;;;6.17;2.20;;;1.30;99.90;;;-0.81;100.00;99970.03;10452474;27;96536;-83
2023/12/07 05:07:56;;;;;;;5.03;2.13;;;1.40;99.90;;;-0.77;100.00;99987.16;10442810;27;97840;-84
2023/12/07 05:13:00;;;;;;;3.40;1.70;;;1.40;99.90;;;-0.77;100.00;99988.94;10471942;27;96575;-84
2023/12/07 05:18:04;;;;;;;3.97;1.60;;;1.40;99.90;;;-0.77;100.00;99988.94;10431878;27;96413;-84
2023/12/07 05:23:08;;;;;;;3.50;1.60;;;1.40;99.90;;;-0.76;100.00;99991.44;10470189;27;96597;-84
2023/12/07 05:28:12;;;;;;;3.10;1.50;;;1.30;99.90;;;-0.74;100.00;99999.97;10483921;27;96505;-84
2023/12/07 05:33:15;;;;;;;3.63;2.07;;;1.40;99.90;;;-0.77;100.00;100001.97;10479241;27;96686;-84
2023/12/07 05:38:20;;;;;;;6.00;3.00;;;1.40;99.90;;;-0.71;100.00;100014.63;10490347;27;96551;-85
2023/12/07 05:43:23;;;;;;;11.00;4.37;;;1.40;99.90;;;-0.71;100.00;100012.00;10497184;27;96558;-84
2023/12/07 05:48:27;;;;;;;16.73;6.63;;;1.40;99.90;;;-0.75;100.00;100010.53;10468947;27;96561;-82
2023/12/07 05:53:34;;;;;;;14.57;6.87;;;1.40;99.90;;;-0.78;100.00;100011.56;10433011;27;96402;-82
2023/12/07 05:58:38;;;;;;;8.67;3.30;;;1.40;99.90;;;-0.74;100.00;100027.84;10478710;27;96669;-83
2023/12/07 06:03:41;;;;;;;16.03;5.47;;;1.40;99.90;;;-0.75;100.00;100031.41;10428903;27;96490;-85
2023/12/07 06:08:45;;;;;;;12.73;4.47;;;1.40;99.90;;;-0.76;100.00;100029.72;10463546;27;96778;-84
2023/12/07 06:13:48;;;;;;;13.63;5.07;;;1.40;99.90;;;-0.77;100.00;100023.69;10437674;27;96470;-84
2023/12/07 06:18:52;;;;;;;15.93;6.63;;;1.40;99.90;;;-0.76;100.00;100024.50;10455159;27;97345;-84
2023/12/07 06:23:56;;;;;;;27.13;9.53;;;1.40;99.90;;;-0.73;100.00;100034.75;10472204;27;96983;-85
2023/12/07 06:29:00;;;;;;;37.63;13.57;;;1.40;99.90;;;-0.73;100.00;100043.41;10439202;27;96555;-84
2023/12/07 06:34:04;;;;;;;33.50;11.03;;;1.50;99.90;;;-0.71;100.00;100038.09;10476808;27;96536;-85
2023/12/07 06:39:07;;;;;;;29.47;10.97;;;1.50;99.90;;;-0.70;100.00;100050.22;10479270;27;96630;-85
2023/12/07 06:44:11;;;;;;;25.73;9.87;;;1.50;99.90;;;-0.68;100.00;100049.16;10478647;27;96795;-85
2023/12/07 06:49:14;;;;;;;25.00;10.03;;;1.50;99.90;;;-0.66;100.00;100056.88;10463433;27;96918;-85
2023/12/07 06:54:18;;;;;;;36.40;12.50;;;1.50;99.90;;;-0.70;100.00;100055.44;10444074;27;96878;-85
2023/12/07 06:59:21;;;;;;;53.93;14.57;;;1.50;99.90;;;-0.63;100.00;100064.53;10472509;27;96558;-85
2023/12/07 07:04:25;;;;;;;57.27;17.23;;;1.50;99.90;;;-0.62;100.00;100071.41;10436249;27;96655;-86
2023/12/07 07:09:28;;;;;;;29.43;9.70;;;1.60;99.90;;;-0.58;100.00;100073.72;10444665;27;96455;-85
2023/12/07 07:14:32;;;;;;;29.87;10.03;;;1.60;99.90;;;-0.56;100.00;100078.84;10467109;27;96616;-84
2023/12/07 07:19:36;;;;;;;26.10;10.53;;;1.60;99.90;;;-0.56;100.00;100081.44;10487965;27;96848;-85
2023/12/07 07:24:40;;;;;;;32.03;12.90;;;1.60;99.90;;;-0.55;100.00;100083.97;10455175;27;96762;-85
2023/12/07 07:29:44;;;;;;;28.43;12.40;;;1.70;99.90;;;-0.55;100.00;100091.78;10468556;27;96843;-85
2023/12/07 07:34:47;;;;;;;31.10;14.00;;;1.70;99.90;;;-0.58;100.00;100086.78;10452941;27;96586;-86
2023/12/07 07:39:51;;;;;;;33.43;14.33;;;1.70;99.90;;;-0.54;100.00;100097.84;10475998;27;96534;-85
2023/12/07 07:44:55;;;;;;;38.67;16.47;;;1.70;99.90;;;-0.56;100.00;100102.34;10493429;27;96932;-86
2023/12/07 07:49:59;;;;;;;38.47;17.00;;;1.60;99.90;;;-0.58;100.00;100099.00;10492161;27;96583;-86
2023/12/07 07:55:04;;;;;;;37.23;16.53;;;1.60;99.90;;;-0.60;100.00;100106.06;10467109;27;96514;-85
2023/12/07 08:00:09;;;;;;;33.57;14.60;;;1.60;99.90;;;-0.64;100.00;100102.84;10492525;27;96658;-85
2023/12/07 08:05:13;;;;;;;24.47;10.77;;;1.60;99.90;;;-0.60;100.00;100101.72;10472058;27;97811;-86
2023/12/07 08:10:17;;;;;;;18.80;9.43;;;1.60;99.90;;;-0.53;100.00;100114.38;10468701;27;96689;-87
2023/12/07 08:15:21;;;;;;;21.83;8.40;;;1.70;99.90;;;-0.57;100.00;100098.06;10437328;27;97318;-85
2023/12/07 08:20:26;;;;;;;15.93;8.03;;;1.70;99.90;;;-0.44;100.00;100113.75;10459014;27;96875;-85
2023/12/07 08:25:31;;;;;;;23.53;11.47;;;1.70;99.90;;;-0.45;100.00;100118.16;10435283;27;96996;-85
2023/12/07 08:30:36;;;;;;;14.90;6.47;;;1.80;99.90;;;-0.44;100.00;100098.94;10443906;27;96739;-86
2023/12/07 08:35:40;;;;;;;10.17;5.10;;;1.80;99.90;;;-0.41;100.00;100118.78;10455493;27;98918;-86
2023/12/07 08:40:43;;;;;;;13.47;7.40;;;1.80;99.90;;;-0.45;100.00;100110.31;10460482;27;96573;-86
2023/12/07 08:45:47;;;;;;;15.10;7.37;;;1.80;99.90;;;-0.41;100.00;100111.78;10449171;27;96598;-86
2023/12/07 08:50:51;;;;;;;18.53;8.60;;;1.80;99.90;;;-0.35;100.00;100121.84;10506825;27;96459;-86
2023/12/07 08:55:55;;;;;;;27.30;11.83;;;1.90;99.90;;;-0.32;100.00;100120.78;10474365;27;96458;-86
2023/12/07 09:00:58;;;;;;;27.97;11.00;;;1.90;99.90;;;-0.27;100.00;100122.16;10459066;27;96605;-85
2023/12/07 09:06:02;;;;;;;54.63;19.33;;;2.00;99.90;;;-0.20;100.00;100117.38;10432408;27;96594;-86
2023/12/07 09:11:06;;;;;;;40.33;15.13;;;2.10;99.90;;;-0.10;100.00;100125.44;10479834;27;96496;-85
2023/12/07 09:16:10;;;;;;;35.90;17.13;;;2.10;99.90;;;-0.07;100.00;100118.22;10474984;27;97388;-87
2023/12/07 09:21:14;;;;;;;29.30;12.77;;;2.20;99.90;;;0.03;100.00;100121.06;10460764;27;97202;-86
2023/12/07 09:26:18;;;;;;;37.73;14.90;;;2.20;99.90;;;0.09;100.00;100118.03;10466362;27;96773;-86
2023/12/07 09:31:22;;;;;;;53.00;16.70;;;2.30;99.90;;;0.16;100.00;100105.41;10461363;27;97664;-86
2023/12/07 09:46:53;;;;;;;28.65;14.13;;;2.60;99.90;;;0.39;100.00;100101.22;10436875;27;96795;-86
2023/12/07 09:51:59;;;;;;;27.07;11.80;;;2.70;99.90;;;0.53;100.00;100114.16;10463656;27;96561;-85
2023/12/07 09:57:02;;;;;;;20.97;11.13;;;2.70;99.90;;;0.53;100.00;100101.09;10446012;27;96693;-85
2023/12/07 10:02:07;;;;;;;20.53;9.53;;;2.80;99.90;;;0.58;100.00;100109.47;10448528;27;97033;-85
2023/12/07 10:07:11;;;;;;;17.47;8.10;;;2.80;99.90;;;0.63;100.00;100114.38;10484800;27;96613;-85
2023/12/07 10:12:15;;;;;;;19.37;9.30;;;2.90;99.90;;;0.72;100.00;100114.59;10457910;27;97284;-85
2023/12/07 10:17:18;;;;;;;19.90;9.13;;;2.90;99.90;;;0.79;100.00;100121.06;10462399;27;96705;-85
2023/12/07 10:22:22;;;;;;;29.40;12.97;;;3.00;99.90;;;0.76;100.00;100118.66;10474304;27;97129;-85
2023/12/07 10:27:28;;;;;;;19.83;10.40;;;3.10;99.90;;;0.76;100.00;100121.25;10470337;27;97236;-84
2023/12/07 10:32:31;;;;;;;20.27;8.87;;;3.10;99.90;;;0.71;100.00;100117.28;10471697;27;96554;-84
2023/12/07 10:37:35;;;;;;;23.83;13.23;;;3.00;99.90;;;0.62;100.00;100116.16;10482744;27;96488;-84
2023/12/07 10:42:43;;;;;;;22.90;11.87;;;3.00;99.90;;;0.59;100.00;100124.22;10446453;27;96577;-85
2023/12/07 10:47:53;;;;;;;37.93;16.30;;;2.90;99.90;;;0.55;100.00;100114.91;10474271;27;97127;-85
2023/12/07 10:53:04;;;;;;;30.40;15.43;;;2.90;99.90;;;0.58;100.00;100119.09;10489611;27;96545;-85
2023/12/07 10:58:10;;;;;;;21.77;12.50;;;2.90;99.90;;;0.55;100.00;100114.91;10488790;27;96783;-84
2023/12/07 11:03:17;;;;;;;30.97;14.13;;;2.90;99.90;;;0.55;100.00;100120.16;10447495;27;96563;-84
2023/12/07 11:08:41;;;;;;;23.27;11.97;;;2.90;99.90;;;0.62;100.00;100126.63;10462948;27;96473;-85
2023/12/07 11:14:12;;;;;;;23.07;12.00;;;2.90;99.90;;;0.67;100.00;100136.78;10466722;27;96428;-85
2023/12/07 11:19:36;;;;;;;29.97;15.90;;;2.90;99.90;;;0.66;100.00;100138.56;10487108;27;96673;-85
2023/12/07 11:25:00;;;;;;;29.27;14.53;;;2.90;99.90;;;0.71;100.00;100144.28;10485643;27;96594;-85
2023/12/07 11:30:04;;;;;;;41.10;18.40;;;2.90;99.90;;;0.75;100.00;100142.28;10488658;27;96866;-85
2023/12/07 11:35:13;;;;;;;24.83;13.50;;;3.00;99.90;;;0.78;100.00;100142.06;10431747;27;96717;-85
2023/12/07 11:40:17;;;;;;;27.77;14.77;;;3.00;99.90;;;0.81;100.00;100134.03;10472566;27;96668;-86
2023/12/07 11:45:42;;;;;;;31.37;14.23;;;3.10;99.90;;;0.86;100.00;100136.31;10483479;27;97651;-86
2023/12/07 11:51:07;;;;;;;22.90;11.17;;;3.10;99.90;;;0.84;100.00;100135.56;10484460;27;96562;-87
2023/12/07 11:56:13;;;;;;;20.93;9.93;;;3.10;99.90;;;0.78;100.00;100122.00;10454293;27;97247;-87
2023/12/07 12:01:17;;;;;;;19.73;10.67;;;3.10;99.90;;;0.87;100.00;100132.75;10434888;27;96902;-87
2023/12/07 12:06:24;;;;;;;30.50;13.30;;;3.20;99.90;;;0.87;100.00;100130.97;10453777;27;97500;-87
2023/12/07 12:11:27;;;;;;;23.13;10.43;;;3.20;99.90;;;0.92;100.00;100138.50;10468814;27;96502;-87
2023/12/07 12:16:31;;;;;;;22.80;11.07;;;3.20;99.90;;;0.86;100.00;100138.94;10450549;27;97701;-87
2023/12/07 12:21:38;;;;;;;21.67;12.07;;;3.20;99.90;;;0.77;100.00;100141.25;10458471;27;96725;-87
2023/12/07 12:26:44;;;;;;;24.70;11.47;;;3.10;99.90;;;0.71;100.00;100149.50;10437408;27;96641;-88
2023/12/07 12:31:48;;;;;;;27.30;12.77;;;3.00;99.90;;;0.59;100.00;100141.69;10463073;27;96576;-87
2023/12/07 12:36:56;;;;;;;29.50;15.03;;;2.90;99.90;;;0.51;100.00;100152.66;10446516;27;96712;-87
2023/12/07 12:42:00;;;;;;;22.57;12.33;;;2.70;99.90;;;0.47;100.00;100159.03;10464608;27;96672;-87
2023/12/07 12:47:09;;;;;;;27.60;14.00;;;2.70;99.90;;;0.43;100.00;100160.22;10459122;27;96672;-87
2023/12/07 12:52:17;;;;;;;32.47;16.10;;;2.70;99.90;;;0.48;100.00;100165.94;10489275;27;96708;-87
2023/12/07 12:57:20;;;;;;;41.07;19.30;;;2.70;99.90;;;0.53;100.00;100169.06;10451565;27;96572;-87
2023/12/07 13:02:24;;;;;;;45.73;25.07;;;2.70;99.90;;;0.53;100.00;100166.47;10468781;27;96488;-87
2023/12/07 13:07:27;;;;;;;27.13;14.67;;;2.70;99.90;;;0.58;100.00;100177.44;10457460;27;96894;-87
2023/12/07 13:12:34;;;;;;;24.70;13.43;;;2.70;99.90;;;0.56;100.00;100171.50;10481988;27;96591;-87
2023/12/07 13:17:38;;;;;;;37.43;14.90;;;2.80;99.90;;;0.56;100.00;100179.34;10461126;27;96631;-87
2023/12/07 13:22:46;;;;;;;30.97;16.37;;;2.80;99.90;;;0.56;100.00;100175.91;10474400;27;96926;-87
2023/12/07 13:27:50;;;;;;;27.03;13.97;;;2.80;99.90;;;0.53;100.00;100183.00;10451215;27;96569;-88
2023/12/07 13:32:54;;;;;;;29.43;13.40;;;2.70;99.90;;;0.56;100.00;100181.13;10445202;27;96602;-88
2023/12/07 13:37:58;;;;;;;23.23;12.13;;;2.80;99.90;;;0.60;100.00;100188.66;10469693;27;96746;-88
2023/12/07 13:43:03;;;;;;;25.90;12.70;;;2.80;99.90;;;0.60;100.00;100201.75;10470976;27;96652;-88
2023/12/07 13:48:06;;;;;;;24.10;12.60;;;2.80;99.90;;;0.54;100.00;100207.38;10454072;27;97771;-87
2023/12/07 13:53:10;;;;;;;30.40;12.73;;;2.70;99.90;;;0.49;100.00;100202.47;10446774;27;96625;-88
2023/12/07 13:58:14;;;;;;;30.93;16.87;;;2.70;99.90;;;0.42;100.00;100202.97;10467797;27;96514;-88
2023/12/07 14:03:18;;;;;;;33.53;16.90;;;2.70;99.90;;;0.44;100.00;100206.31;10439448;27;96673;-87
2023/12/07 14:08:23;;;;;;;42.00;16.47;;;2.60;99.90;;;0.40;100.00;100212.69;10438696;27;96509;-87
2023/12/07 14:13:27;;;;;;;38.33;15.57;;;2.60;99.90;;;0.28;100.00;100210.91;10444110;27;97047;-86
2023/12/07 14:18:31;;;;;;;34.60;14.80;;;2.50;99.90;;;0.24;100.00;100212.84;10451286;27;96876;-87
2023/12/07 14:23:35;;;;;;;28.67;15.47;;;2.50;99.90;;;0.36;100.00;100246.06;10456292;27;96724;-87
2023/12/07 14:28:42;;;;;;;31.27;15.50;;;2.50;99.90;;;0.29;100.00;100239.53;10426443;27;97800;-87
2023/12/07 14:33:45;;;;;;;34.87;16.23;;;2.50;99.90;;;0.32;100.00;100243.75;10478610;27;96563;-87
2023/12/07 14:38:50;;;;;;;32.53;14.53;;;2.50;99.90;;;0.19;100.00;100249.78;10443341;27;97868;-87
2023/12/07 14:43:53;;;;;;;28.57;12.87;;;2.50;99.90;;;0.26;100.00;100276.34;10466221;27;96603;-87
2023/12/07 14:48:57;;;;;;;42.97;18.97;;;2.40;99.90;;;0.22;100.00;100272.25;10458398;27;96600;-87
2023/12/07 14:54:00;;;;;;;41.67;17.93;;;2.40;99.90;;;0.17;100.00;100283.00;10489165;27;96579;-85
2023/12/07 14:59:04;;;;;;;36.07;15.33;;;2.40;99.90;;;0.11;100.00;100285.16;10462537;27;96504;-85
2023/12/07 15:04:09;;;;;;;20.77;11.13;;;2.30;99.90;;;-0.02;100.00;100291.19;10476843;27;96644;-85
2023/12/07 15:09:23;;;;;;;23.30;11.20;;;2.20;99.90;;;-0.11;100.00;100293.56;10477133;27;96918;-86
2023/12/07 15:14:27;;;;;;;22.43;12.10;;;2.10;99.90;;;-0.19;100.00;100301.84;10452185;27;96709;-85
2023/12/07 15:19:41;;;;;;;31.97;15.70;;;2.00;99.90;;;-0.25;100.00;100307.47;10445959;27;96578;-85
2023/12/07 15:24:45;;;;;;;37.97;15.47;;;1.90;99.90;;;-0.29;100.00;100304.22;10499005;27;96521;-85
2023/12/07 15:29:48;;;;;;;47.53;20.47;;;1.80;99.90;;;-0.33;100.00;100315.78;10452022;27;96606;-85
2023/12/07 15:34:52;;;;;;;31.97;16.27;;;1.80;99.90;;;-0.45;100.00;100311.34;10450203;27;96634;-85
2023/12/07 15:39:56;;;;;;;45.80;18.67;;;1.80;99.90;;;-0.38;100.00;100325.69;10459704;27;96900;-85
2023/12/07 15:45:00;;;;;;;35.00;15.27;;;1.70;99.90;;;-0.44;100.00;100317.38;10442795;27;96599;-85
2023/12/07 15:50:05;;;;;;;41.53;16.13;;;1.80;99.90;;;-0.41;100.00;100331.09;10400566;28;96708;-85
2023/12/07 15:55:09;;;;;;;39.87;18.23;;;1.70;99.90;;;-0.44;100.00;100339.13;10498394;27;96797;-85
2023/12/07 16:00:14;;;;;;;39.00;16.13;;;1.70;99.90;;;-0.43;100.00;100348.63;10416029;27;97058;-85
2023/12/07 16:05:18;;;;;;;37.77;15.30;;;1.70;99.90;;;-0.42;100.00;100352.06;10458741;27;96447;-85
2023/12/07 16:10:22;;;;;;;42.97;18.07;;;1.70;99.90;;;-0.47;100.00;100344.53;10442412;27;96634;-85
2023/12/07 16:15:26;;;;;;;40.73;17.77;;;1.70;99.90;;;-0.48;100.00;100353.31;10465547;27;97462;-85
2023/12/07 16:20:30;;;;;;;41.73;17.13;;;1.70;99.90;;;-0.47;100.00;100356.75;10483629;27;96794;-85
2023/12/07 16:25:34;;;;;;;46.97;16.70;;;1.70;99.90;;;-0.47;100.00;100360.19;10461321;27;96542;-85
2023/12/07 16:30:37;;;;;;;50.70;23.20;;;1.70;99.90;;;-0.46;100.00;100361.03;10436741;27;98458;-85
2023/12/07 16:35:52;;;;;;;48.57;21.97;;;1.70;99.90;;;-0.51;100.00;100353.47;10451252;27;96798;-84
2023/12/07 16:40:56;;;;;;;44.73;19.57;;;1.70;99.90;;;-0.49;100.00;100367.25;10485336;27;96522;-84
2023/12/07 16:46:04;;;;;;;32.70;15.83;;;1.70;99.90;;;-0.52;100.00;100369.25;10470930;27;96645;-84
2023/12/07 16:51:08;;;;;;;40.73;15.90;;;1.60;99.90;;;-0.47;100.00;100383.69;10490290;27;96797;-84
2023/12/07 16:56:12;;;;;;;35.27;16.00;;;1.60;99.90;;;-0.55;100.00;100372.84;10457222;27;97676;-84
2023/12/07 17:01:16;;;;;;;37.27;14.33;;;1.70;99.90;;;-0.50;100.00;100377.81;10473541;27;96579;-84
2023/12/07 17:06:20;;;;;;;50.10;20.10;;;1.70;99.90;;;-0.45;100.00;100388.81;10439978;27;97005;-85
2023/12/07 17:11:24;;;;;;;41.83;17.13;;;1.70;99.90;;;-0.44;100.00;100393.94;10440328;27;96552;-85
2023/12/07 17:16:29;;;;;;;30.07;14.10;;;1.70;99.90;;;-0.47;100.00;100399.38;10454607;27;97841;-84
2023/12/07 17:21:32;;;;;;;35.67;14.17;;;1.70;99.90;;;-0.41;100.00;100406.81;10440536;27;98341;-85
2023/12/07 17:26:41;;;;;;;50.57;22.07;;;1.70;99.90;;;-0.38;100.00;100405.78;10460916;27;97405;-85
2023/12/07 17:31:58;;;;;;;64.97;26.93;;;1.70;99.90;;;-0.40;100.00;100405.88;10456969;27;97264;-85
2023/12/07 17:37:03;;;;;;;59.80;26.17;;;1.70;99.90;;;-0.40;100.00;100398.06;10443772;27;96633;-85
2023/12/07 17:42:07;;;;;;;44.10;20.50;;;1.70;99.90;;;-0.37;100.00;100397.84;10458143;27;96548;-86
2023/12/07 17:47:10;;;;;;;45.57;18.80;;;1.80;99.90;;;-0.33;100.00;100407.19;10466340;27;96540;-86
2023/12/07 17:52:14;;;;;;;56.07;22.77;;;1.80;99.90;;;-0.44;100.00;100380.88;10452294;27;96578;-86
2023/12/07 17:57:18;;;;;;;66.50;28.60;;;1.80;99.90;;;-0.32;100.00;100405.41;10446006;27;96855;-86
2023/12/07 18:02:22;;;;;;;36.40;17.27;;;1.80;99.90;;;-0.38;100.00;100404.00;10486261;27;96612;-86
2023/12/07 18:07:26;;;;;;;32.97;15.50;;;1.80;99.90;;;-0.31;100.00;100413.16;10449867;27;96858;-86
2023/12/07 18:12:30;;;;;;;40.37;17.60;;;1.80;99.90;;;-0.33;100.00;100419.41;10485998;27;97054;-86
2023/12/07 18:17:33;;;;;;;34.30;15.13;;;1.80;99.90;;;-0.28;100.00;100417.34;10450841;27;96655;-86
2023/12/07 18:22:37;;;;;;;46.73;20.20;;;1.80;99.90;;;-0.32;100.00;100416.69;10455253;27;96603;-86
2023/12/07 18:27:42;;;;;;;43.67;19.40;;;1.80;99.90;;;-0.27;100.00;100430.31;10476882;27;97917;-86
2023/12/07 18:32:46;;;;;;;40.93;18.13;;;1.90;99.90;;;-0.22;100.00;100442.25;10454971;27;96876;-86
2023/12/07 18:37:51;;;;;;;56.87;27.87;;;1.90;99.90;;;-0.26;100.00;100428.53;10463411;27;97852;-86
2023/12/07 18:42:54;;;;;;;64.53;26.27;;;1.90;99.90;;;-0.22;100.00;100431.81;10459898;27;96627;-86
2023/12/07 18:47:58;;;;;;;38.73;18.73;;;2.00;99.90;;;-0.18;100.00;100431.53;10437409;27;96734;-86
2023/12/07 18:53:02;;;;;;;47.73;23.63;;;1.90;99.90;;;-0.18;100.00;100436.78;10474044;27;96596;-86
2023/12/07 18:58:06;;;;;;;58.23;24.90;;;1.90;99.90;;;-0.21;100.00;100423.03;10445321;27;97160;-86
2023/12/07 19:03:10;;;;;;;43.53;18.83;;;2.00;99.90;;;-0.16;100.00;100431.44;10434402;27;98263;-86
2023/12/07 19:08:13;;;;;;;44.73;20.50;;;2.00;99.90;;;-0.21;100.00;100423.03;10469285;27;96548;-86
2023/12/07 19:13:17;;;;;;;39.27;18.00;;;2.00;99.90;;;-0.19;100.00;100427.22;10483774;27;96677;-86
2023/12/07 19:18:21;;;;;;;47.80;20.33;;;2.00;99.90;;;-0.21;100.00;100428.28;10445869;27;96619;-86
2023/12/07 19:23:24;;;;;;;43.63;18.30;;;2.00;99.90;;;-0.21;100.00;100430.88;10460768;27;96864;-87
2023/12/07 19:28:28;;;;;;;72.03;27.90;;;2.00;99.90;;;-0.18;100.00;100433.28;10457392;27;96485;-86
2023/12/07 19:33:31;;;;;;;64.00;27.60;;;2.00;99.90;;;-0.23;100.00;100441.44;10474572;27;97806;-86
2023/12/07 19:38:36;;;;;;;82.60;28.57;;;1.90;99.90;;;-0.29;100.00;100432.19;10476225;27;96590;-86
2023/12/07 19:43:40;;;;;;;60.63;25.73;;;1.90;99.90;;;-0.33;100.00;100428.06;10441967;27;96603;-86
2023/12/07 19:48:44;;;;;;;43.53;20.73;;;1.90;99.90;;;-0.28;100.00;100441.69;10461018;27;96636;-86
2023/12/07 19:53:50;;;;;;;42.30;19.60;;;1.90;99.90;;;-0.28;100.00;100441.69;10444086;27;96490;-86
2023/12/07 19:58:54;;;;;;;43.33;18.87;;;1.80;99.90;;;-0.30;100.00;100438.34;10463836;27;96604;-85
2023/12/07 20:03:58;;;;;;;42.87;19.43;;;1.80;99.90;;;-0.34;100.00;100436.00;10475549;27;96706;-86
2023/12/07 20:09:01;;;;;;;47.67;19.33;;;1.80;99.90;;;-0.34;100.00;100433.41;10455938;27;97598;-86
2023/12/07 20:14:06;;;;;;;36.23;17.97;;;1.80;99.90;;;-0.30;100.00;100448.81;10450699;27;96530;-86
2023/12/07 20:19:10;;;;;;;37.37;16.20;;;1.80;99.90;;;-0.28;100.00;100454.75;10486910;27;96622;-87
2023/12/07 20:24:14;;;;;;;47.80;17.33;;;1.80;99.90;;;-0.27;100.00;100455.59;10468581;27;96674;-86
2023/12/07 20:29:19;;;;;;;53.17;21.57;;;1.80;99.90;;;-0.22;100.00;100452.72;10446628;27;96664;-86
2023/12/07 20:34:22;;;;;;;51.43;21.60;;;1.90;99.90;;;-0.25;100.00;100453.72;10458214;27;96674;-86
2023/12/07 20:39:26;;;;;;;44.30;19.87;;;1.90;99.90;;;-0.33;100.00;100461.19;10444668;27;97693;-86
2023/12/07 20:44:29;;;;;;;38.10;15.83;;;1.80;99.90;;;-0.38;100.00;100474.50;10443301;27;97030;-86
2023/12/07 20:49:33;;;;;;;43.53;19.23;;;1.70;99.90;;;-0.47;100.00;100480.28;10435914;27;96652;-86
2023/12/07 20:54:39;;;;;;;33.33;15.77;;;1.60;99.90;;;-0.59;100.00;100486.25;10438423;27;96652;-86